sensor_id;sensor_type;location;lat;lon;timestamp;noise_LAeq;noise_LA_min;noise_LA_max;noise_LA01;noise_LA95
37223;Laerm;28026;48.562;14.440;2023-09-30T00:01:11;39.10;33.90;45.94;;
37223;Laerm;28026;48.562;14.440;2023-09-30T00:03:42;41.72;36.91;51.79;;
37223;Laerm;28026;48.562;14.440;2023-09-30T00:06:13;44.20;39.08;57.67;;
37223;Laerm;28026;48.562;14.440;2023-09-30T00:08:44;44.79;40.33;53.37;;
37223;Laerm;28026;48.562;14.440;2023-09-30T00:11:16;44.27;38.37;58.39;;
37223;Laerm;28026;48.562;14.440;2023-09-30T00:13:50;40.54;35.36;52.58;;
37223;Laerm;28026;48.562;14.440;2023-09-30T00:16:21;40.86;33.44;56.25;;
37223;Laerm;28026;48.562;14.440;2023-09-30T00:18:52;39.95;32.93;57.60;;
37223;Laerm;28026;48.562;14.440;2023-09-30T00:21:25;41.32;32.35;56.77;;
37223;Laerm;28026;48.562;14.440;2023-09-30T00:23:56;37.47;31.68;51.93;;
37223;Laerm;28026;48.562;14.440;2023-09-30T00:26:27;37.57;32.35;55.38;;
37223;Laerm;28026;48.562;14.440;2023-09-30T00:28:58;39.76;30.89;54.08;;
37223;Laerm;28026;48.562;14.440;2023-09-30T00:31:29;43.69;39.46;54.27;;
37223;Laerm;28026;48.562;14.440;2023-09-30T00:34:00;44.23;40.23;54.56;;
37223;Laerm;28026;48.562;14.440;2023-09-30T00:36:30;45.98;40.03;55.22;;
37223;Laerm;28026;48.562;14.440;2023-09-30T00:39:02;52.87;44.03;63.02;;
37223;Laerm;28026;48.562;14.440;2023-09-30T00:41:33;54.82;43.14;64.18;;
37223;Laerm;28026;48.562;14.440;2023-09-30T00:44:04;47.33;35.66;58.80;;
37223;Laerm;28026;48.562;14.440;2023-09-30T00:46:40;41.91;34.69;55.62;;
37223;Laerm;28026;48.562;14.440;2023-09-30T00:49:14;40.47;34.31;54.17;;
37223;Laerm;28026;48.562;14.440;2023-09-30T00:51:47;41.12;32.35;54.60;;
37223;Laerm;28026;48.562;14.440;2023-09-30T00:54:18;40.93;35.66;53.07;;
37223;Laerm;28026;48.562;14.440;2023-09-30T00:56:53;39.55;32.35;54.14;;
37223;Laerm;28026;48.562;14.440;2023-09-30T00:59:26;37.55;32.35;52.78;;
37223;Laerm;28026;48.562;14.440;2023-09-30T01:01:59;37.75;32.93;53.94;;
37223;Laerm;28026;48.562;14.440;2023-09-30T01:04:31;37.27;32.35;49.21;;
37223;Laerm;28026;48.562;14.440;2023-09-30T01:07:02;37.41;32.93;54.09;;
37223;Laerm;28026;48.562;14.440;2023-09-30T01:09:33;37.41;30.89;55.89;;
37223;Laerm;28026;48.562;14.440;2023-09-30T01:12:05;37.14;31.68;50.99;;
37223;Laerm;28026;48.562;14.440;2023-09-30T01:14:36;36.98;32.35;54.72;;
37223;Laerm;28026;48.562;14.440;2023-09-30T01:17:09;37.02;29.92;54.53;;
37223;Laerm;28026;48.562;14.440;2023-09-30T01:19:43;36.86;31.68;48.84;;
37223;Laerm;28026;48.562;14.440;2023-09-30T01:22:14;36.92;31.68;54.34;;
37223;Laerm;28026;48.562;14.440;2023-09-30T01:24:47;37.49;31.68;49.73;;
37223;Laerm;28026;48.562;14.440;2023-09-30T01:27:18;36.88;30.89;50.50;;
37223;Laerm;28026;48.562;14.440;2023-09-30T01:29:49;37.07;32.35;49.02;;
37223;Laerm;28026;48.562;14.440;2023-09-30T01:32:21;36.98;30.89;47.79;;
37223;Laerm;28026;48.562;14.440;2023-09-30T01:34:52;37.38;32.35;58.59;;
37223;Laerm;28026;48.562;14.440;2023-09-30T01:37:26;37.06;32.00;52.63;;
37223;Laerm;28026;48.562;14.440;2023-09-30T01:39:58;36.84;28.67;46.98;;
37223;Laerm;28026;48.562;14.440;2023-09-30T01:42:29;40.97;31.68;53.24;;
37223;Laerm;28026;48.562;14.440;2023-09-30T01:45:00;40.76;33.44;48.77;;
37223;Laerm;28026;48.562;14.440;2023-09-30T01:47:31;40.76;33.90;50.96;;
37223;Laerm;28026;48.562;14.440;2023-09-30T01:50:02;37.63;32.35;46.13;;
37223;Laerm;28026;48.562;14.440;2023-09-30T01:52:33;37.15;32.35;47.10;;
37223;Laerm;28026;48.562;14.440;2023-09-30T01:55:04;39.58;33.55;44.39;;
37223;Laerm;28026;48.562;14.440;2023-09-30T01:57:35;37.77;32.93;51.69;;
37223;Laerm;28026;48.562;14.440;2023-09-30T02:00:07;37.37;32.35;49.36;;
37223;Laerm;28026;48.562;14.440;2023-09-30T02:02:40;36.71;30.89;40.43;;
37223;Laerm;28026;48.562;14.440;2023-09-30T02:05:12;36.84;31.33;42.29;;
37223;Laerm;28026;48.562;14.440;2023-09-30T02:07:43;40.22;33.90;44.76;;
37223;Laerm;28026;48.562;14.440;2023-09-30T02:10:15;39.84;32.93;45.30;;
37223;Laerm;28026;48.562;14.440;2023-09-30T02:12:47;46.05;36.91;54.81;;
37223;Laerm;28026;48.562;14.440;2023-09-30T02:15:18;40.50;34.31;44.94;;
37223;Laerm;28026;48.562;14.440;2023-09-30T02:17:48;37.68;31.68;42.98;;
37223;Laerm;28026;48.562;14.440;2023-09-30T02:20:19;37.69;32.93;52.71;;
37223;Laerm;28026;48.562;14.440;2023-09-30T02:22:52;37.55;31.68;42.53;;
37223;Laerm;28026;48.562;14.440;2023-09-30T02:25:25;37.84;32.93;41.96;;
37223;Laerm;28026;48.562;14.440;2023-09-30T02:27:56;41.69;34.31;50.24;;
37223;Laerm;28026;48.562;14.440;2023-09-30T02:30:27;39.01;33.90;52.43;;
37223;Laerm;28026;48.562;14.440;2023-09-30T02:32:58;38.54;32.93;43.94;;
37223;Laerm;28026;48.562;14.440;2023-09-30T02:35:30;37.66;33.44;48.88;;
37223;Laerm;28026;48.562;14.440;2023-09-30T02:38:01;37.42;29.92;43.09;;
37223;Laerm;28026;48.562;14.440;2023-09-30T02:40:32;37.51;31.68;49.89;;
37223;Laerm;28026;48.562;14.440;2023-09-30T02:43:03;37.03;31.68;40.53;;
37223;Laerm;28026;48.562;14.440;2023-09-30T02:45:34;36.98;31.68;45.66;;
37223;Laerm;28026;48.562;14.440;2023-09-30T02:48:05;37.70;32.35;42.65;;
37223;Laerm;28026;48.562;14.440;2023-09-30T02:50:37;40.95;32.93;56.70;;
37223;Laerm;28026;48.562;14.440;2023-09-30T02:53:10;37.48;31.68;43.04;;
37223;Laerm;28026;48.562;14.440;2023-09-30T02:55:42;36.76;30.89;42.29;;
37223;Laerm;28026;48.562;14.440;2023-09-30T02:58:13;36.97;31.68;54.18;;
37223;Laerm;28026;48.562;14.440;2023-09-30T03:00:48;37.32;31.68;52.32;;
37223;Laerm;28026;48.562;14.440;2023-09-30T03:03:19;38.11;30.89;49.98;;
37223;Laerm;28026;48.562;14.440;2023-09-30T03:05:50;37.03;31.68;40.53;;
37223;Laerm;28026;48.562;14.440;2023-09-30T03:08:21;38.51;29.92;53.33;;
37223;Laerm;28026;48.562;14.440;2023-09-30T03:10:53;40.58;32.93;46.20;;
37223;Laerm;28026;48.562;14.440;2023-09-30T03:13:23;38.88;32.35;52.24;;
37223;Laerm;28026;48.562;14.440;2023-09-30T03:15:55;39.25;32.93;54.21;;
37223;Laerm;28026;48.562;14.440;2023-09-30T03:18:27;39.85;32.35;50.11;;
37223;Laerm;28026;48.562;14.440;2023-09-30T03:21:01;37.96;29.92;45.51;;
37223;Laerm;28026;48.562;14.440;2023-09-30T03:23:32;41.11;31.68;46.78;;
37223;Laerm;28026;48.562;14.440;2023-09-30T03:26:03;37.38;31.68;41.75;;
37223;Laerm;28026;48.562;14.440;2023-09-30T03:28:34;39.66;32.35;56.50;;
37223;Laerm;28026;48.562;14.440;2023-09-30T03:31:05;42.68;35.04;54.04;;
37223;Laerm;28026;48.562;14.440;2023-09-30T03:33:37;38.00;31.68;57.54;;
37223;Laerm;28026;48.562;14.440;2023-09-30T03:36:09;37.75;31.68;44.69;;
37223;Laerm;28026;48.562;14.440;2023-09-30T03:38:40;42.43;35.04;51.87;;
37223;Laerm;28026;48.562;14.440;2023-09-30T03:41:12;38.07;31.68;43.04;;
37223;Laerm;28026;48.562;14.440;2023-09-30T03:43:43;37.83;32.93;57.00;;
37223;Laerm;28026;48.562;14.440;2023-09-30T03:46:15;41.03;35.36;48.40;;
37223;Laerm;28026;48.562;14.440;2023-09-30T03:48:46;41.65;33.90;51.19;;
37223;Laerm;28026;48.562;14.440;2023-09-30T03:51:17;41.60;32.35;57.26;;
37223;Laerm;28026;48.562;14.440;2023-09-30T03:53:48;42.98;34.69;51.87;;
37223;Laerm;28026;48.562;14.440;2023-09-30T03:56:19;42.52;36.45;52.38;;
37223;Laerm;28026;48.562;14.440;2023-09-30T03:58:53;38.95;31.68;47.74;;
37223;Laerm;28026;48.562;14.440;2023-09-30T04:01:23;43.21;33.44;62.60;;
37223;Laerm;28026;48.562;14.440;2023-09-30T04:03:56;42.85;35.36;53.07;;
37223;Laerm;28026;48.562;14.440;2023-09-30T04:06:27;40.60;33.90;53.03;;
37223;Laerm;28026;48.562;14.440;2023-09-30T04:08:59;38.08;32.35;53.67;;
37223;Laerm;28026;48.562;14.440;2023-09-30T04:11:32;41.57;35.94;53.74;;
37223;Laerm;28026;48.562;14.440;2023-09-30T04:14:07;43.83;35.94;62.24;;
37223;Laerm;28026;48.562;14.440;2023-09-30T04:16:38;42.95;35.66;53.48;;
37223;Laerm;28026;48.562;14.440;2023-09-30T04:19:10;43.98;33.44;60.59;;
37223;Laerm;28026;48.562;14.440;2023-09-30T04:21:40;42.75;33.90;56.82;;
37223;Laerm;28026;48.562;14.440;2023-09-30T04:24:11;39.71;32.93;51.93;;
37223;Laerm;28026;48.562;14.440;2023-09-30T04:26:42;43.38;34.31;61.07;;
37223;Laerm;28026;48.562;14.440;2023-09-30T04:29:13;38.50;32.93;55.36;;
37223;Laerm;28026;48.562;14.440;2023-09-30T04:31:44;46.82;35.94;63.07;;
37223;Laerm;28026;48.562;14.440;2023-09-30T04:34:17;43.65;33.90;63.60;;
37223;Laerm;28026;48.562;14.440;2023-09-30T04:36:48;40.99;33.90;57.95;;
37223;Laerm;28026;48.562;14.440;2023-09-30T04:39:19;39.06;32.93;49.62;;
37223;Laerm;28026;48.562;14.440;2023-09-30T04:41:50;40.29;34.69;54.67;;
37223;Laerm;28026;48.562;14.440;2023-09-30T04:44:21;40.42;33.44;52.21;;
37223;Laerm;28026;48.562;14.440;2023-09-30T04:46:53;41.86;36.20;52.57;;
37223;Laerm;28026;48.562;14.440;2023-09-30T04:49:25;41.69;35.94;54.56;;
37223;Laerm;28026;48.562;14.440;2023-09-30T04:51:56;42.64;35.94;49.14;;
37223;Laerm;28026;48.562;14.440;2023-09-30T04:54:27;39.91;35.36;51.67;;
37223;Laerm;28026;48.562;14.440;2023-09-30T04:57:00;43.92;33.90;64.85;;
37223;Laerm;28026;48.562;14.440;2023-09-30T04:59:31;44.04;33.90;65.77;;
37223;Laerm;28026;48.562;14.440;2023-09-30T05:02:01;40.67;34.69;50.04;;
37223;Laerm;28026;48.562;14.440;2023-09-30T05:04:34;40.89;34.31;49.28;;
37223;Laerm;28026;48.562;14.440;2023-09-30T05:07:05;39.90;35.04;49.91;;
37223;Laerm;28026;48.562;14.440;2023-09-30T05:09:36;38.88;34.69;50.49;;
37223;Laerm;28026;48.562;14.440;2023-09-30T05:12:09;39.46;32.93;49.44;;
37223;Laerm;28026;48.562;14.440;2023-09-30T05:14:40;40.11;34.31;51.95;;
37223;Laerm;28026;48.562;14.440;2023-09-30T05:17:12;41.31;35.94;55.55;;
37223;Laerm;28026;48.562;14.440;2023-09-30T05:19:44;40.55;35.36;48.94;;
37223;Laerm;28026;48.562;14.440;2023-09-30T05:22:14;40.35;34.69;51.39;;
37223;Laerm;28026;48.562;14.440;2023-09-30T05:24:46;41.57;36.91;58.11;;
37223;Laerm;28026;48.562;14.440;2023-09-30T05:27:16;44.05;35.36;70.50;;
37223;Laerm;28026;48.562;14.440;2023-09-30T05:29:47;42.56;36.20;56.46;;
37223;Laerm;28026;48.562;14.440;2023-09-30T05:32:19;41.10;35.94;52.78;;
37223;Laerm;28026;48.562;14.440;2023-09-30T05:34:50;43.16;36.34;55.70;;
37223;Laerm;28026;48.562;14.440;2023-09-30T05:37:25;40.17;36.20;50.97;;
37223;Laerm;28026;48.562;14.440;2023-09-30T05:39:57;39.06;34.31;48.03;;
37223;Laerm;28026;48.562;14.440;2023-09-30T05:42:28;40.70;34.69;55.03;;
37223;Laerm;28026;48.562;14.440;2023-09-30T05:44:59;39.05;33.44;53.71;;
37223;Laerm;28026;48.562;14.440;2023-09-30T05:47:29;39.88;33.44;50.92;;
37223;Laerm;28026;48.562;14.440;2023-09-30T05:50:00;39.82;33.90;53.12;;
37223;Laerm;28026;48.562;14.440;2023-09-30T05:52:34;41.87;35.66;47.93;;
37223;Laerm;28026;48.562;14.440;2023-09-30T05:55:06;40.09;34.69;44.87;;
37223;Laerm;28026;48.562;14.440;2023-09-30T05:57:37;40.88;35.36;51.66;;
37223;Laerm;28026;48.562;14.440;2023-09-30T06:00:12;39.65;33.44;52.38;;
37223;Laerm;28026;48.562;14.440;2023-09-30T06:03:13;40.05;35.36;51.48;;
37223;Laerm;28026;48.562;14.440;2023-09-30T06:05:44;41.50;35.04;46.30;;
37223;Laerm;28026;48.562;14.440;2023-09-30T06:08:15;40.29;34.69;51.24;;
37223;Laerm;28026;48.562;14.440;2023-09-30T06:10:46;39.80;34.69;54.63;;
37223;Laerm;28026;48.562;14.440;2023-09-30T06:13:17;38.81;33.90;49.18;;
37223;Laerm;28026;48.562;14.440;2023-09-30T06:15:47;40.45;34.31;57.28;;
37223;Laerm;28026;48.562;14.440;2023-09-30T06:18:20;39.87;35.66;49.57;;
37223;Laerm;28026;48.562;14.440;2023-09-30T06:20:51;43.03;35.36;66.87;;
37223;Laerm;28026;48.562;14.440;2023-09-30T06:23:22;42.27;35.04;65.16;;
37223;Laerm;28026;48.562;14.440;2023-09-30T06:25:53;40.25;35.36;54.67;;
37223;Laerm;28026;48.562;14.440;2023-09-30T06:28:24;43.02;38.67;52.10;;
37223;Laerm;28026;48.562;14.440;2023-09-30T06:30:57;40.24;35.66;47.79;;
37223;Laerm;28026;48.562;14.440;2023-09-30T06:33:28;41.27;36.91;48.94;;
37223;Laerm;28026;48.562;14.440;2023-09-30T06:36:00;41.26;36.91;50.26;;
37223;Laerm;28026;48.562;14.440;2023-09-30T06:38:32;41.14;36.45;46.64;;
37223;Laerm;28026;48.562;14.440;2023-09-30T06:41:04;40.60;34.69;54.33;;
37223;Laerm;28026;48.562;14.440;2023-09-30T06:43:35;39.88;35.04;57.58;;
37223;Laerm;28026;48.562;14.440;2023-09-30T06:46:08;40.00;35.59;50.50;;
37223;Laerm;28026;48.562;14.440;2023-09-30T06:48:39;40.60;35.04;53.48;;
37223;Laerm;28026;48.562;14.440;2023-09-30T06:51:14;40.46;34.31;61.31;;
37223;Laerm;28026;48.562;14.440;2023-09-30T06:53:45;38.96;34.31;51.59;;
37223;Laerm;28026;48.562;14.440;2023-09-30T06:56:16;39.81;35.04;50.73;;
37223;Laerm;28026;48.562;14.440;2023-09-30T06:58:47;40.71;35.66;50.68;;
37223;Laerm;28026;48.562;14.440;2023-09-30T07:01:18;39.68;35.36;50.74;;
37223;Laerm;28026;48.562;14.440;2023-09-30T07:03:49;43.14;35.36;68.61;;
37223;Laerm;28026;48.562;14.440;2023-09-30T07:06:26;43.67;36.20;65.49;;
37223;Laerm;28026;48.562;14.440;2023-09-30T07:08:57;43.11;36.20;65.95;;
37223;Laerm;28026;48.562;14.440;2023-09-30T07:11:30;44.95;38.05;67.80;;
37223;Laerm;28026;48.562;14.440;2023-09-30T07:14:03;55.76;38.21;83.25;;
37223;Laerm;28026;48.562;14.440;2023-09-30T07:16:34;54.09;37.88;77.45;;
37223;Laerm;28026;48.562;14.440;2023-09-30T07:19:05;47.41;37.32;71.93;;
37223;Laerm;28026;48.562;14.440;2023-09-30T07:21:36;53.76;38.05;80.07;;
37223;Laerm;28026;48.562;14.440;2023-09-30T07:24:08;47.66;36.20;76.48;;
37223;Laerm;28026;48.562;14.440;2023-09-30T07:26:40;51.44;37.88;82.71;;
37223;Laerm;28026;48.562;14.440;2023-09-30T07:29:11;45.25;36.45;76.90;;
37223;Laerm;28026;48.562;14.440;2023-09-30T07:31:42;41.26;34.69;65.22;;
37223;Laerm;28026;48.562;14.440;2023-09-30T07:34:13;41.59;35.94;64.21;;
37223;Laerm;28026;48.562;14.440;2023-09-30T07:36:46;41.70;36.20;46.73;;
37223;Laerm;28026;48.562;14.440;2023-09-30T07:39:17;41.56;37.12;59.26;;
37223;Laerm;28026;48.562;14.440;2023-09-30T07:41:48;49.25;36.20;76.92;;
37223;Laerm;28026;48.562;14.440;2023-09-30T07:44:18;61.20;37.12;92.15;;
37223;Laerm;28026;48.562;14.440;2023-09-30T07:46:50;42.44;35.04;66.31;;
37223;Laerm;28026;48.562;14.440;2023-09-30T07:49:20;47.24;36.20;74.21;;
37223;Laerm;28026;48.562;14.440;2023-09-30T07:51:51;48.22;35.94;69.95;;
37223;Laerm;28026;48.562;14.440;2023-09-30T07:54:22;51.12;36.91;81.81;;
37223;Laerm;28026;48.562;14.440;2023-09-30T07:56:54;48.15;38.05;76.42;;
37223;Laerm;28026;48.562;14.440;2023-09-30T07:59:27;43.08;38.05;63.37;;
37223;Laerm;28026;48.562;14.440;2023-09-30T08:01:57;51.89;37.52;76.82;;
37223;Laerm;28026;48.562;14.440;2023-09-30T08:04:30;52.78;35.66;80.59;;
37223;Laerm;28026;48.562;14.440;2023-09-30T08:07:01;52.43;38.52;77.60;;
37223;Laerm;28026;48.562;14.440;2023-09-30T08:09:32;56.55;38.37;86.14;;
37223;Laerm;28026;48.562;14.440;2023-09-30T08:12:03;47.60;37.32;71.06;;
37223;Laerm;28026;48.562;14.440;2023-09-30T08:14:35;50.29;37.52;76.12;;
37223;Laerm;28026;48.562;14.440;2023-09-30T08:17:06;48.09;35.04;74.58;;
37223;Laerm;28026;48.562;14.440;2023-09-30T08:19:37;49.17;37.88;78.24;;
37223;Laerm;28026;48.562;14.440;2023-09-30T08:22:08;54.61;38.21;75.38;;
37223;Laerm;28026;48.562;14.440;2023-09-30T08:24:40;57.58;37.88;78.65;;
37223;Laerm;28026;48.562;14.440;2023-09-30T08:27:11;57.23;37.12;80.36;;
37223;Laerm;28026;48.562;14.440;2023-09-30T08:29:42;53.76;37.88;82.88;;
37223;Laerm;28026;48.562;14.440;2023-09-30T08:32:13;55.18;38.05;80.00;;
37223;Laerm;28026;48.562;14.440;2023-09-30T08:34:44;56.10;36.69;80.59;;
37223;Laerm;28026;48.562;14.440;2023-09-30T08:37:14;52.34;37.53;74.73;;
37223;Laerm;28026;48.562;14.440;2023-09-30T08:39:45;49.88;38.52;71.91;;
37223;Laerm;28026;48.562;14.440;2023-09-30T08:42:18;47.00;36.91;65.94;;
37223;Laerm;28026;48.562;14.440;2023-09-30T08:44:53;48.47;36.45;73.87;;
37223;Laerm;28026;48.562;14.440;2023-09-30T08:47:28;42.43;37.32;57.92;;
37223;Laerm;28026;48.562;14.440;2023-09-30T08:50:01;43.23;38.05;57.08;;
37223;Laerm;28026;48.562;14.440;2023-09-30T08:52:45;52.72;37.32;78.11;;
37223;Laerm;28026;48.562;14.440;2023-09-30T08:55:16;55.74;38.21;78.50;;
37223;Laerm;28026;48.562;14.440;2023-09-30T08:57:50;46.11;37.88;66.96;;
37223;Laerm;28026;48.562;14.440;2023-09-30T09:00:22;48.81;37.52;69.66;;
37223;Laerm;28026;48.562;14.440;2023-09-30T09:02:53;55.89;37.52;83.19;;
37223;Laerm;28026;48.562;14.440;2023-09-30T09:05:24;49.06;37.32;71.93;;
37223;Laerm;28026;48.562;14.440;2023-09-30T09:07:55;49.58;37.12;75.48;;
37223;Laerm;28026;48.562;14.440;2023-09-30T09:10:25;44.68;37.52;68.68;;
37223;Laerm;28026;48.562;14.440;2023-09-30T09:12:58;45.11;36.69;67.92;;
37223;Laerm;28026;48.562;14.440;2023-09-30T09:15:29;45.62;36.20;75.08;;
37223;Laerm;28026;48.562;14.440;2023-09-30T09:18:00;48.54;37.52;72.72;;
37223;Laerm;28026;48.562;14.440;2023-09-30T09:20:31;50.40;38.37;77.17;;
37223;Laerm;28026;48.562;14.440;2023-09-30T09:23:06;60.21;36.45;81.27;;
37223;Laerm;28026;48.562;14.440;2023-09-30T09:25:38;46.07;37.52;69.06;;
37223;Laerm;28026;48.562;14.440;2023-09-30T09:28:10;49.08;36.45;75.88;;
37223;Laerm;28026;48.562;14.440;2023-09-30T09:30:41;42.42;36.69;57.70;;
37223;Laerm;28026;48.562;14.440;2023-09-30T09:33:14;41.60;36.20;57.12;;
37223;Laerm;28026;48.562;14.440;2023-09-30T09:35:48;42.34;37.12;63.83;;
37223;Laerm;28026;48.562;14.440;2023-09-30T09:38:19;42.72;36.69;60.38;;
37223;Laerm;28026;48.562;14.440;2023-09-30T09:40:50;42.37;37.52;61.83;;
37223;Laerm;28026;48.562;14.440;2023-09-30T09:43:21;41.49;37.12;48.21;;
37223;Laerm;28026;48.562;14.440;2023-09-30T09:45:54;42.44;36.91;58.47;;
37223;Laerm;28026;48.562;14.440;2023-09-30T09:48:27;48.68;37.12;76.02;;
37223;Laerm;28026;48.562;14.440;2023-09-30T09:51:00;44.14;36.91;68.04;;
37223;Laerm;28026;48.562;14.440;2023-09-30T09:53:36;58.79;39.92;90.79;;
37223;Laerm;28026;48.562;14.440;2023-09-30T09:56:09;52.62;38.37;76.04;;
37223;Laerm;28026;48.562;14.440;2023-09-30T09:58:47;46.09;36.69;75.11;;
37223;Laerm;28026;48.562;14.440;2023-09-30T10:01:18;59.56;37.88;79.70;;
37223;Laerm;28026;48.562;14.440;2023-09-30T10:03:49;49.47;38.67;76.35;;
37223;Laerm;28026;48.562;14.440;2023-09-30T10:06:20;47.51;38.05;69.82;;
37223;Laerm;28026;48.562;14.440;2023-09-30T10:08:55;47.47;38.21;73.48;;
37223;Laerm;28026;48.562;14.440;2023-09-30T10:11:29;53.72;39.21;75.77;;
37223;Laerm;28026;48.562;14.440;2023-09-30T10:14:00;49.40;38.95;80.40;;
37223;Laerm;28026;48.562;14.440;2023-09-30T10:19:14;52.58;39.08;76.41;;
37223;Laerm;28026;48.562;14.440;2023-09-30T10:24:59;56.96;39.08;82.81;;
37223;Laerm;28026;48.562;14.440;2023-09-30T10:27:31;59.85;38.52;85.00;;
37223;Laerm;28026;48.562;14.440;2023-09-30T10:40:58;49.40;35.36;79.18;;
37223;Laerm;28026;48.562;14.440;2023-09-30T10:43:38;56.13;36.69;81.53;;
37223;Laerm;28026;48.562;14.440;2023-09-30T10:51:59;57.09;35.36;83.52;;
37223;Laerm;28026;48.562;14.440;2023-09-30T10:54:32;52.55;36.91;77.73;;
37223;Laerm;28026;48.562;14.440;2023-09-30T10:57:03;47.01;36.91;71.98;;
37223;Laerm;28026;48.562;14.440;2023-09-30T10:59:35;45.24;36.69;67.53;;
37223;Laerm;28026;48.562;14.440;2023-09-30T11:02:19;48.69;37.52;78.71;;
37223;Laerm;28026;48.562;14.440;2023-09-30T11:04:50;51.62;36.45;75.37;;
37223;Laerm;28026;48.562;14.440;2023-09-30T11:07:24;57.88;35.94;88.39;;
37223;Laerm;28026;48.562;14.440;2023-09-30T11:09:56;52.41;38.05;73.40;;
37223;Laerm;28026;48.562;14.440;2023-09-30T11:12:27;53.33;36.45;80.32;;
37223;Laerm;28026;48.562;14.440;2023-09-30T11:15:05;45.29;39.34;65.20;;
37223;Laerm;28026;48.562;14.440;2023-09-30T11:17:39;50.77;37.70;78.01;;
37223;Laerm;28026;48.562;14.440;2023-09-30T11:20:10;47.23;36.20;75.08;;
37223;Laerm;28026;48.562;14.440;2023-09-30T11:22:41;47.10;38.37;71.33;;
37223;Laerm;28026;48.562;14.440;2023-09-30T11:25:17;48.80;35.94;77.06;;
37223;Laerm;28026;48.562;14.440;2023-09-30T11:27:49;50.36;36.69;75.32;;
37223;Laerm;28026;48.562;14.440;2023-09-30T11:30:20;50.57;38.37;79.27;;
37223;Laerm;28026;48.562;14.440;2023-09-30T11:32:59;45.04;40.03;63.92;;
37223;Laerm;28026;48.562;14.440;2023-09-30T11:35:33;41.94;36.91;56.16;;
37223;Laerm;28026;48.562;14.440;2023-09-30T11:38:04;44.13;38.05;63.95;;
37223;Laerm;28026;48.562;14.440;2023-09-30T11:40:35;48.77;35.66;77.68;;
37223;Laerm;28026;48.562;14.440;2023-09-30T11:43:10;49.93;36.69;77.13;;
37223;Laerm;28026;48.562;14.440;2023-09-30T11:45:45;45.23;38.81;65.61;;
37223;Laerm;28026;48.562;14.440;2023-09-30T11:48:20;46.86;39.34;72.94;;
37223;Laerm;28026;48.562;14.440;2023-09-30T11:50:52;50.22;38.21;77.57;;
37223;Laerm;28026;48.562;14.440;2023-09-30T11:53:25;47.01;35.04;74.58;;
37223;Laerm;28026;48.562;14.440;2023-09-30T11:56:00;49.52;35.94;76.64;;
37223;Laerm;28026;48.562;14.440;2023-09-30T11:58:33;45.24;35.66;72.15;;
37223;Laerm;28026;48.562;14.440;2023-09-30T12:01:04;41.19;36.20;57.32;;
37223;Laerm;28026;48.562;14.440;2023-09-30T12:03:37;42.54;34.31;54.83;;
37223;Laerm;28026;48.562;14.440;2023-09-30T12:06:10;50.15;36.45;79.02;;
37223;Laerm;28026;48.562;14.440;2023-09-30T12:08:44;41.93;35.36;64.66;;
37223;Laerm;28026;48.562;14.440;2023-09-30T12:11:16;45.75;37.52;70.73;;
37223;Laerm;28026;48.562;14.440;2023-09-30T12:13:46;41.73;36.20;63.12;;
37223;Laerm;28026;48.562;14.440;2023-09-30T12:16:20;42.44;35.36;68.27;;
37223;Laerm;28026;48.562;14.440;2023-09-30T12:18:51;41.57;36.69;49.04;;
37223;Laerm;28026;48.562;14.440;2023-09-30T12:21:22;43.43;38.67;67.13;;
37223;Laerm;28026;48.562;14.440;2023-09-30T12:23:54;43.96;37.70;67.39;;
37223;Laerm;28026;48.562;14.440;2023-09-30T12:26:25;46.29;37.52;75.58;;
37223;Laerm;28026;48.562;14.440;2023-09-30T12:28:57;45.64;37.32;75.26;;
37223;Laerm;28026;48.562;14.440;2023-09-30T12:31:28;44.36;37.32;70.90;;
37223;Laerm;28026;48.562;14.440;2023-09-30T12:33:59;42.94;38.37;64.05;;
37223;Laerm;28026;48.562;14.440;2023-09-30T12:36:30;42.86;37.70;55.80;;
37223;Laerm;28026;48.562;14.440;2023-09-30T12:39:01;43.43;37.12;68.12;;
37223;Laerm;28026;48.562;14.440;2023-09-30T12:41:34;48.39;34.69;73.95;;
37223;Laerm;28026;48.562;14.440;2023-09-30T12:44:09;52.74;36.20;76.25;;
37223;Laerm;28026;48.562;14.440;2023-09-30T12:46:40;50.30;37.52;83.44;;
37223;Laerm;28026;48.562;14.440;2023-09-30T12:49:11;42.77;37.70;55.16;;
37223;Laerm;28026;48.562;14.440;2023-09-30T12:51:42;50.97;38.05;76.90;;
37223;Laerm;28026;48.562;14.440;2023-09-30T12:54:13;42.37;38.21;58.34;;
37223;Laerm;28026;48.562;14.440;2023-09-30T12:56:45;42.02;37.88;54.69;;
37223;Laerm;28026;48.562;14.440;2023-09-30T12:59:18;43.37;38.21;60.26;;
37223;Laerm;28026;48.562;14.440;2023-09-30T13:01:50;42.99;37.70;58.62;;
37223;Laerm;28026;48.562;14.440;2023-09-30T13:04:21;40.90;37.12;52.05;;
37223;Laerm;28026;48.562;14.440;2023-09-30T13:06:54;43.01;38.05;55.30;;
37223;Laerm;28026;48.562;14.440;2023-09-30T13:09:25;40.88;37.12;47.22;;
37223;Laerm;28026;48.562;14.440;2023-09-30T13:11:56;40.18;37.32;50.48;;
37223;Laerm;28026;48.562;14.440;2023-09-30T13:14:30;41.21;36.69;66.05;;
37223;Laerm;28026;48.562;14.440;2023-09-30T13:17:01;43.51;36.45;62.09;;
37223;Laerm;28026;48.562;14.440;2023-09-30T13:19:34;42.80;37.12;69.04;;
37223;Laerm;28026;48.562;14.440;2023-09-30T13:22:05;41.89;38.21;53.56;;
37223;Laerm;28026;48.562;14.440;2023-09-30T13:24:36;42.61;38.21;64.98;;
37223;Laerm;28026;48.562;14.440;2023-09-30T13:27:10;41.33;36.69;58.07;;
37223;Laerm;28026;48.562;14.440;2023-09-30T13:29:41;41.45;37.12;48.42;;
37223;Laerm;28026;48.562;14.440;2023-09-30T13:32:13;43.04;37.12;54.63;;
37223;Laerm;28026;48.562;14.440;2023-09-30T13:34:44;42.96;37.52;57.50;;
37223;Laerm;28026;48.562;14.440;2023-09-30T13:37:15;43.03;38.37;57.70;;
37223;Laerm;28026;48.562;14.440;2023-09-30T13:39:46;41.33;37.12;59.28;;
37223;Laerm;28026;48.562;14.440;2023-09-30T13:42:17;40.69;36.45;54.59;;
37223;Laerm;28026;48.562;14.440;2023-09-30T13:44:48;40.38;35.66;64.47;;
37223;Laerm;28026;48.562;14.440;2023-09-30T13:47:19;41.00;37.12;50.38;;
37223;Laerm;28026;48.562;14.440;2023-09-30T13:49:50;41.68;36.91;59.05;;
37223;Laerm;28026;48.562;14.440;2023-09-30T13:52:21;41.15;36.20;48.58;;
37223;Laerm;28026;48.562;14.440;2023-09-30T13:54:52;41.01;35.04;65.51;;
37223;Laerm;28026;48.562;14.440;2023-09-30T13:57:23;40.90;34.69;65.00;;
37223;Laerm;28026;48.562;14.440;2023-09-30T13:59:54;39.55;34.31;67.30;;
37223;Laerm;28026;48.562;14.440;2023-09-30T14:02:25;40.24;34.31;60.14;;
37223;Laerm;28026;48.562;14.440;2023-09-30T14:04:56;40.85;35.36;51.80;;
37223;Laerm;28026;48.562;14.440;2023-09-30T14:07:27;40.65;36.45;45.07;;
37223;Laerm;28026;48.562;14.440;2023-09-30T14:09:59;39.66;35.94;51.43;;
37223;Laerm;28026;48.562;14.440;2023-09-30T14:12:30;41.37;36.20;54.95;;
37223;Laerm;28026;48.562;14.440;2023-09-30T14:15:02;41.11;36.20;51.40;;
37223;Laerm;28026;48.562;14.440;2023-09-30T14:17:33;40.99;36.45;46.82;;
37223;Laerm;28026;48.562;14.440;2023-09-30T14:20:06;41.31;35.94;61.22;;